createdAt,value
2018-04-24T00:00:08.004Z,5.77
2018-04-24T00:02:35.557Z,6.53
2018-04-24T00:05:03.828Z,6.67
2018-04-24T00:07:31.397Z,6.23
2018-04-24T00:09:58.861Z,6.30
2018-04-24T00:12:26.321Z,6.27
2018-04-24T00:14:53.870Z,5.90
2018-04-24T00:17:21.333Z,6.13
2018-04-24T00:19:48.789Z,5.90
2018-04-24T00:22:16.249Z,5.53
2018-04-24T00:24:43.809Z,5.90
2018-04-24T00:27:11.272Z,6.00
2018-04-24T00:29:38.732Z,5.73
2018-04-24T00:32:06.196Z,5.83
2018-04-24T00:34:33.650Z,6.30
2018-04-24T00:37:01.192Z,5.90
2018-04-24T00:39:28.659Z,5.43
2018-04-24T00:41:56.174Z,6.40
2018-04-24T00:44:23.633Z,5.33
2018-04-24T00:46:51.089Z,5.50
2018-04-24T00:49:18.587Z,6.03
2018-04-24T00:51:46.061Z,5.53
2018-04-24T00:54:13.609Z,5.90
2018-04-24T00:56:41.837Z,6.00
2018-04-24T00:59:09.293Z,5.20
2018-04-24T01:01:36.760Z,5.13
2018-04-24T01:04:04.261Z,5.90
2018-04-24T01:06:32.540Z,6.30
2018-04-24T01:09:00.092Z,5.80
2018-04-24T01:11:27.641Z,5.43
2018-04-24T01:13:55.092Z,6.13
2018-04-24T01:16:22.557Z,5.30
2018-04-24T01:18:50.009Z,5.23
2018-04-24T01:21:17.472Z,4.67
2018-04-24T01:23:44.934Z,4.90
2018-04-24T01:26:12.390Z,4.90
2018-04-24T01:28:39.864Z,5.30
2018-04-24T01:31:07.325Z,5.00
2018-04-24T01:33:35.598Z,5.07
2018-04-24T01:36:03.050Z,5.10
2018-04-24T01:38:30.622Z,5.20
2018-04-24T01:40:58.179Z,4.70
2018-04-24T01:43:25.739Z,4.90
2018-04-24T01:45:53.204Z,5.03
2018-04-24T01:48:20.761Z,5.13
2018-04-24T01:50:48.217Z,5.37
2018-04-24T01:53:15.673Z,5.00
2018-04-24T01:55:43.232Z,5.60
2018-04-24T01:58:10.692Z,5.17
2018-04-24T02:00:38.148Z,5.03
2018-04-24T02:03:05.709Z,5.23
2018-04-24T02:05:33.540Z,4.80
2018-04-24T02:08:02.265Z,5.23
2018-04-24T02:10:29.720Z,5.40
2018-04-24T02:12:57.285Z,4.73
2018-04-24T02:15:24.845Z,4.90
2018-04-24T02:17:52.396Z,4.97
2018-04-24T02:20:19.852Z,4.50
2018-04-24T02:22:47.313Z,4.43
2018-04-24T02:25:14.769Z,5.00
2018-04-24T02:27:42.226Z,5.23
2018-04-24T02:30:09.681Z,4.80
2018-04-24T02:32:37.145Z,4.70
2018-04-24T02:35:04.609Z,5.40
2018-04-24T02:37:32.174Z,5.20
2018-04-24T02:40:00.450Z,5.40
2018-04-24T02:42:27.906Z,5.50
2018-04-24T02:44:55.472Z,5.13
2018-04-24T02:47:23.025Z,5.00
2018-04-24T02:49:50.476Z,5.90
2018-04-24T02:52:18.051Z,5.30
2018-04-24T02:54:45.605Z,6.03
2018-04-24T02:57:13.094Z,5.37
2018-04-24T02:59:41.312Z,5.67
2018-04-24T03:02:08.777Z,5.43
2018-04-24T03:04:36.238Z,5.30
2018-04-24T03:07:03.704Z,5.77
2018-04-24T03:09:31.160Z,5.00
2018-04-24T03:11:58.617Z,5.20
2018-04-24T03:14:26.189Z,5.70
2018-04-24T03:16:53.669Z,5.57
2018-04-24T03:19:21.926Z,5.50
2018-04-24T03:21:49.484Z,6.10
2018-04-24T03:24:16.941Z,5.47
2018-04-24T03:26:44.408Z,5.73
2018-04-24T03:29:11.868Z,6.47
2018-04-24T03:31:39.332Z,6.27
2018-04-24T03:34:06.881Z,6.30
2018-04-24T03:36:35.109Z,6.13
2018-04-24T03:39:02.579Z,5.83
2018-04-24T03:41:30.042Z,6.97
2018-04-24T03:43:57.504Z,7.03
2018-04-24T03:46:24.980Z,5.93
2018-04-24T03:48:52.551Z,5.70
2018-04-24T03:51:20.037Z,6.43
2018-04-24T03:53:48.285Z,7.13
2018-04-24T03:56:15.845Z,7.17
2018-04-24T03:58:43.313Z,7.57
2018-04-24T04:01:10.865Z,7.63
2018-04-24T04:03:38.323Z,7.57
2018-04-24T04:06:05.872Z,7.43
2018-04-24T04:08:33.341Z,7.70
2018-04-24T04:11:01.573Z,6.97
2018-04-24T04:13:29.045Z,8.13
2018-04-24T04:15:56.588Z,8.00
2018-04-24T04:18:35.869Z,6.57
2018-04-24T04:21:15.101Z,6.63
2018-04-24T04:23:54.541Z,7.07
2018-04-24T04:26:22.225Z,6.93
2018-04-24T04:28:50.448Z,7.07
2018-04-24T04:31:17.916Z,7.53
2018-04-24T04:33:45.394Z,8.23
2018-04-24T04:36:12.869Z,7.03
2018-04-24T04:38:40.333Z,7.73
2018-04-24T04:41:07.787Z,7.07
2018-04-24T04:43:35.325Z,7.00
2018-04-24T04:46:02.789Z,7.20
2018-04-24T04:48:30.349Z,6.40
2018-04-24T04:50:57.805Z,6.50
2018-04-24T04:53:25.270Z,6.30
2018-04-24T04:55:52.821Z,7.33
2018-04-24T04:58:20.385Z,6.57
2018-04-24T05:00:47.941Z,6.60
2018-04-24T05:03:15.505Z,6.63
2018-04-24T05:05:42.960Z,6.33
2018-04-24T05:08:10.420Z,7.43
2018-04-24T05:10:37.900Z,7.00
2018-04-24T05:13:06.132Z,6.50
2018-04-24T05:15:33.604Z,7.40
2018-04-24T05:18:01.073Z,10.87
2018-04-24T05:20:28.533Z,7.70
2018-04-24T05:22:57.017Z,8.77
2018-04-24T05:25:24.477Z,8.37
2018-04-24T05:27:52.028Z,15.43
2018-04-24T05:30:19.597Z,7.63
2018-04-24T05:32:47.153Z,9.30
2018-04-24T05:35:14.624Z,8.07
2018-04-24T05:37:42.164Z,7.33
2018-04-24T05:40:09.620Z,7.63
2018-04-24T05:42:37.188Z,6.63
2018-04-24T05:45:04.651Z,6.93
2018-04-24T05:47:32.118Z,6.73
2018-04-24T05:49:59.590Z,6.97
2018-04-24T05:52:27.845Z,6.27
2018-04-24T05:54:55.309Z,6.90
2018-04-24T05:57:22.861Z,7.10
2018-04-24T05:59:50.316Z,8.23
2018-04-24T06:02:17.777Z,6.77
2018-04-24T06:04:46.006Z,6.37
2018-04-24T06:07:13.509Z,6.03
2018-04-24T06:09:41.065Z,5.73
2018-04-24T06:12:08.534Z,5.50
2018-04-24T06:14:35.992Z,6.93
2018-04-24T06:17:03.549Z,8.73
2018-04-24T06:19:31.017Z,11.27
2018-04-24T06:21:58.569Z,8.03
2018-04-24T06:24:26.036Z,5.97
2018-04-24T06:26:53.588Z,5.70
2018-04-24T06:29:21.148Z,6.20
2018-04-24T06:31:48.600Z,6.53
2018-04-24T06:34:16.162Z,5.10
2018-04-24T06:36:44.435Z,6.40
2018-04-24T06:39:11.997Z,6.83
2018-04-24T06:41:39.469Z,6.93
2018-04-24T06:44:07.736Z,6.03
2018-04-24T06:46:35.192Z,5.00
2018-04-24T06:49:02.660Z,6.60
2018-04-24T06:51:30.212Z,5.70
2018-04-24T06:53:58.348Z,6.37
2018-04-24T06:56:25.800Z,6.13
2018-04-24T06:58:53.302Z,6.23
2018-04-24T07:01:20.761Z,5.90
2018-04-24T07:03:48.988Z,5.83
2018-04-24T07:06:16.454Z,6.47
2018-04-24T07:08:43.917Z,6.33
2018-04-24T07:11:11.408Z,6.37
2018-04-24T07:13:38.977Z,6.90
2018-04-24T07:16:06.532Z,5.90
2018-04-24T07:18:34.092Z,6.27
2018-04-24T07:21:01.564Z,5.63
2018-04-24T07:23:29.024Z,5.90
2018-04-24T07:25:56.572Z,6.00
2018-04-24T07:28:24.032Z,5.80
2018-04-24T07:30:51.593Z,6.23
2018-04-24T07:33:19.050Z,5.93
2018-04-24T07:35:46.600Z,5.47
2018-04-24T07:38:14.067Z,5.47
2018-04-24T07:40:41.527Z,6.10
2018-04-24T07:43:09.082Z,5.70
2018-04-24T07:45:36.647Z,6.07
2018-04-24T07:48:04.117Z,5.83
2018-04-24T07:50:32.377Z,6.20
2018-04-24T07:52:59.841Z,5.80
2018-04-24T07:55:27.393Z,5.73
2018-04-24T07:57:54.956Z,5.60
2018-04-24T08:00:22.513Z,5.83
2018-04-24T08:02:50.136Z,5.37
2018-04-24T08:05:17.590Z,5.77
2018-04-24T08:07:45.094Z,5.53
2018-04-24T08:10:12.591Z,4.67
2018-04-24T08:12:40.835Z,5.70
2018-04-24T08:15:09.168Z,5.13
2018-04-24T08:17:36.617Z,5.07
2018-04-24T08:20:04.133Z,6.10
2018-04-24T08:22:39.849Z,4.87
2018-04-24T08:25:07.337Z,5.60
2018-04-24T08:27:34.793Z,5.03
2018-04-24T08:30:02.273Z,5.57
2018-04-24T08:32:30.517Z,5.87
2018-04-24T08:34:57.980Z,5.97
2018-04-24T08:37:25.609Z,5.83
2018-04-24T08:39:53.066Z,5.77
2018-04-24T08:42:20.533Z,5.63
2018-04-24T08:44:48.004Z,5.40
2018-04-24T08:47:15.482Z,5.47
2018-04-24T08:49:43.764Z,5.27
2018-04-24T08:52:11.237Z,4.90
2018-04-24T08:54:38.688Z,4.87
2018-04-24T08:57:06.163Z,5.17
2018-04-24T08:59:34.410Z,5.27
2018-04-24T09:02:01.983Z,4.60
2018-04-24T09:04:29.353Z,5.00
2018-04-24T09:06:57.597Z,4.53
2018-04-24T09:09:25.050Z,4.67
2018-04-24T09:11:52.517Z,4.83
2018-04-24T09:14:19.981Z,4.80
2018-04-24T09:16:47.542Z,4.67
2018-04-24T09:19:15.104Z,4.73
2018-04-24T09:21:42.561Z,4.30
2018-04-24T09:24:10.053Z,4.93
2018-04-24T09:26:38.281Z,4.50
2018-04-24T09:29:05.802Z,5.37
2018-04-24T09:31:38.960Z,5.20
2018-04-24T09:34:06.415Z,4.57
2018-04-24T09:36:33.877Z,5.07
2018-04-24T09:39:01.453Z,5.13
2018-04-24T09:41:28.907Z,5.07
2018-04-24T09:43:57.159Z,4.43
2018-04-24T09:46:24.713Z,3.77
2018-04-24T09:48:52.267Z,3.97
2018-04-24T09:51:20.463Z,4.37
2018-04-24T09:53:47.896Z,3.57
2018-04-24T09:56:15.352Z,3.90
2018-04-24T09:58:42.917Z,4.37
2018-04-24T10:01:10.481Z,4.23
2018-04-24T10:03:38.002Z,3.93
2018-04-24T10:06:05.461Z,4.07
2018-04-24T10:08:32.916Z,4.63
2018-04-24T10:11:00.421Z,4.87
2018-04-24T10:13:28.021Z,4.37
2018-04-24T10:15:55.438Z,3.63
2018-04-24T10:18:22.993Z,3.40
2018-04-24T10:20:50.458Z,3.80
2018-04-24T10:23:17.916Z,3.73
2018-04-24T10:25:46.149Z,3.50
2018-04-24T10:28:13.608Z,3.47
2018-04-24T10:30:41.073Z,4.57
2018-04-24T10:33:08.566Z,3.67
2018-04-24T10:35:36.033Z,3.50
2018-04-24T10:38:03.509Z,3.60
2018-04-24T10:40:31.758Z,4.40
2018-04-24T10:42:59.318Z,3.73
2018-04-24T10:45:26.876Z,3.67
2018-04-24T10:47:55.106Z,3.83
2018-04-24T10:50:22.570Z,3.63
2018-04-24T10:52:50.029Z,3.50
2018-04-24T10:55:17.494Z,3.13
2018-04-24T10:57:44.969Z,3.13
2018-04-24T11:00:12.427Z,3.33
2018-04-24T11:02:39.908Z,3.50
2018-04-24T11:05:07.373Z,3.23
2018-04-24T11:07:34.834Z,3.27
2018-04-24T11:10:02.305Z,3.63
2018-04-24T11:12:30.525Z,3.40
2018-04-24T11:14:57.989Z,3.20
2018-04-24T11:17:25.448Z,3.20
2018-04-24T11:19:52.988Z,3.40
2018-04-24T11:22:20.437Z,2.87
2018-04-24T11:24:47.941Z,3.30
2018-04-24T11:27:15.502Z,3.17
2018-04-24T11:29:43.027Z,3.87
2018-04-24T11:32:10.525Z,3.23
2018-04-24T11:34:37.993Z,3.40
2018-04-24T11:37:05.464Z,3.17
2018-04-24T11:39:33.721Z,3.47
2018-04-24T11:42:01.177Z,3.50
2018-04-24T11:44:29.401Z,2.97
2018-04-24T11:46:56.881Z,2.80
2018-04-24T11:49:24.351Z,3.17
2018-04-24T11:51:51.804Z,2.80
2018-04-24T11:54:19.278Z,3.13
2018-04-24T11:56:46.745Z,3.00
2018-04-24T11:59:14.301Z,3.50
2018-04-24T12:01:41.860Z,3.73
2018-04-24T12:04:09.383Z,2.80
2018-04-24T12:06:36.908Z,3.57
2018-04-24T12:09:07.065Z,3.00
2018-04-24T12:11:34.524Z,3.70
2018-04-24T12:14:02.029Z,3.00
2018-04-24T12:16:29.481Z,3.60
2018-04-24T12:18:57.714Z,3.03
2018-04-24T12:21:25.208Z,4.53
2018-04-24T12:23:52.670Z,3.40
2018-04-24T12:26:20.125Z,3.10
2018-04-24T12:28:47.593Z,2.90
2018-04-24T12:31:15.049Z,3.00
2018-04-24T12:33:42.605Z,3.10
2018-04-24T12:36:10.127Z,2.83
2018-04-24T12:38:37.574Z,2.70
2018-04-24T12:41:05.047Z,3.80
2018-04-24T12:43:32.503Z,2.70
2018-04-24T12:45:59.957Z,2.70
2018-04-24T12:48:27.471Z,3.17
2018-04-24T12:50:55.013Z,2.70
2018-04-24T12:53:22.469Z,3.43
2018-04-24T12:55:50.097Z,3.73
2018-04-24T12:58:17.550Z,2.90
2018-04-24T13:00:45.009Z,3.00
2018-04-24T13:03:12.465Z,2.80
2018-04-24T13:05:39.974Z,2.83
2018-04-24T13:08:07.533Z,3.23
2018-04-24T13:10:34.996Z,3.63
2018-04-24T13:13:02.460Z,3.33
2018-04-24T13:15:29.912Z,2.80
2018-04-24T13:17:57.470Z,3.43
2018-04-24T13:20:25.029Z,2.47
2018-04-24T13:22:53.258Z,3.10
2018-04-24T13:25:20.712Z,2.83
2018-04-24T13:27:48.174Z,3.10
2018-04-24T13:30:15.640Z,2.67
2018-04-24T13:32:43.133Z,2.70
2018-04-24T13:35:10.759Z,2.33
2018-04-24T13:37:38.257Z,2.70
2018-04-24T13:40:05.816Z,2.80
2018-04-24T13:42:33.317Z,2.40
2018-04-24T13:45:00.837Z,2.93
2018-04-24T13:47:28.300Z,3.00
2018-04-24T13:49:55.856Z,2.83
2018-04-24T13:52:23.314Z,2.80
2018-04-24T13:54:50.876Z,2.87
2018-04-24T13:57:18.337Z,3.13
2018-04-24T13:59:45.885Z,2.80
2018-04-24T14:02:13.450Z,2.80
2018-04-24T14:04:40.992Z,2.53
2018-04-24T14:07:08.448Z,2.57
2018-04-24T14:09:35.930Z,2.47
2018-04-24T14:12:03.401Z,2.40
2018-04-24T14:14:30.949Z,2.60
2018-04-24T14:16:58.509Z,2.90
2018-04-24T14:19:26.029Z,2.73
2018-04-24T14:21:53.525Z,3.00
2018-04-24T14:24:21.090Z,2.87
2018-04-24T14:26:48.545Z,2.33
2018-04-24T14:29:16.169Z,2.80
2018-04-24T14:31:43.625Z,2.80
2018-04-24T14:34:11.121Z,3.10
2018-04-24T14:36:38.677Z,4.10
2018-04-24T14:39:06.250Z,2.50
2018-04-24T14:41:33.704Z,3.03
2018-04-24T14:44:01.220Z,3.07
2018-04-24T14:46:28.717Z,2.47
2018-04-24T14:48:56.276Z,2.70
2018-04-24T14:51:23.841Z,3.10
2018-04-24T14:53:51.306Z,3.20
2018-04-24T14:56:18.757Z,2.77
2018-04-24T14:58:46.235Z,2.77
2018-04-24T15:01:13.686Z,2.80
2018-04-24T15:03:41.233Z,3.30
2018-04-24T15:06:08.793Z,2.97
2018-04-24T15:08:36.353Z,3.50
2018-04-24T15:11:03.808Z,3.20
2018-04-24T15:13:31.269Z,3.00
2018-04-24T15:15:58.728Z,3.33
2018-04-24T15:18:26.185Z,2.73
2018-04-24T15:20:53.644Z,3.30
2018-04-24T15:23:21.201Z,3.27
2018-04-24T15:25:48.662Z,2.57
2018-04-24T15:28:16.192Z,3.40
2018-04-24T15:30:43.585Z,3.10
2018-04-24T15:33:11.045Z,2.80
2018-04-24T15:35:38.603Z,3.73
2018-04-24T15:38:06.157Z,3.00
2018-04-24T15:40:33.628Z,3.23
2018-04-24T15:43:01.086Z,3.00
2018-04-24T15:45:28.634Z,2.90
2018-04-24T15:47:56.245Z,2.63
2018-04-24T15:50:23.812Z,2.57
2018-04-24T15:52:51.264Z,2.67
2018-04-24T15:55:18.774Z,2.67
2018-04-24T15:57:46.264Z,2.80
2018-04-24T16:00:14.493Z,3.20
2018-04-24T16:02:41.961Z,2.90
2018-04-24T16:05:10.237Z,3.47
2018-04-24T16:07:37.797Z,5.43
2018-04-24T16:10:05.359Z,3.00
2018-04-24T16:12:32.821Z,3.27
2018-04-24T16:15:00.377Z,3.07
2018-04-24T16:17:28.608Z,2.90
2018-04-24T16:19:56.174Z,3.47
2018-04-24T16:22:23.737Z,4.83
2018-04-24T16:24:51.236Z,2.97
2018-04-24T16:27:18.915Z,3.70
2018-04-24T16:29:47.092Z,4.90
2018-04-24T16:32:14.526Z,4.30
2018-04-24T16:34:42.105Z,3.83
2018-04-24T16:37:09.599Z,3.60
2018-04-24T16:39:37.805Z,3.10
2018-04-24T16:42:05.274Z,3.17
2018-04-24T16:44:32.848Z,10.53
2018-04-24T16:47:00.304Z,3.23
2018-04-24T16:49:27.771Z,3.20
2018-04-24T16:51:55.234Z,3.13
2018-04-24T16:54:22.806Z,3.10
2018-04-24T16:56:50.341Z,3.37
2018-04-24T16:59:17.904Z,3.43
2018-04-24T17:01:46.135Z,3.07
2018-04-24T17:04:13.593Z,3.33
2018-04-24T17:06:41.278Z,3.07
2018-04-24T17:09:08.746Z,3.77
2018-04-24T17:11:36.312Z,6.87
2018-04-24T17:14:03.786Z,5.70
2018-04-24T17:16:31.244Z,4.07
2018-04-24T17:18:59.468Z,4.60
2018-04-24T17:21:26.970Z,3.30
2018-04-24T17:23:54.451Z,3.60
2018-04-24T17:26:22.765Z,7.70
2018-04-24T17:28:50.323Z,2.70
2018-04-24T17:31:17.783Z,3.33
2018-04-24T17:33:46.020Z,3.37
2018-04-24T17:36:13.481Z,3.57
2018-04-24T17:38:41.727Z,2.77
2018-04-24T17:41:09.217Z,3.60
2018-04-24T17:43:37.457Z,3.27
2018-04-24T17:46:04.940Z,2.80
2018-04-24T17:48:32.410Z,3.97
2018-04-24T17:51:00.637Z,4.27
2018-04-24T17:53:28.137Z,5.67
2018-04-24T17:55:55.612Z,7.47
2018-04-24T17:58:23.848Z,22.53
2018-04-24T18:00:51.337Z,25.00
2018-04-24T18:03:19.601Z,28.53
2018-04-24T18:05:47.069Z,5.67
2018-04-24T18:08:15.308Z,10.70
2018-04-24T18:10:42.798Z,11.37
2018-04-24T18:13:10.348Z,7.97
2018-04-24T18:15:37.820Z,6.60
2018-04-24T18:18:05.283Z,5.20
2018-04-24T18:20:33.518Z,5.43
2018-04-24T18:23:00.992Z,4.53
2018-04-24T18:25:28.571Z,4.40
2018-04-24T18:27:56.043Z,5.33
2018-04-24T18:30:24.276Z,5.20
2018-04-24T18:32:51.760Z,4.60
2018-04-24T18:35:19.345Z,4.90
2018-04-24T18:37:47.589Z,4.97
2018-04-24T18:40:15.109Z,5.27
2018-04-24T18:42:42.537Z,4.13
2018-04-24T18:45:10.761Z,4.10
2018-04-24T18:47:38.225Z,4.30
2018-04-24T18:50:05.688Z,6.33
2018-04-24T18:52:33.914Z,9.30
2018-04-24T18:55:01.387Z,27.40
2018-04-24T18:57:28.852Z,7.60
2018-04-24T18:59:56.317Z,7.67
2018-04-24T19:02:23.792Z,7.50
2018-04-24T19:04:51.264Z,4.70
2018-04-24T19:07:18.734Z,5.60
2018-04-24T19:09:46.964Z,6.27
2018-04-24T19:12:14.442Z,4.30
2018-04-24T19:14:41.906Z,4.20
2018-04-24T19:17:09.362Z,5.13
2018-04-24T19:19:36.835Z,6.07
2018-04-24T19:22:04.388Z,5.00
2018-04-24T19:24:37.658Z,5.70
2018-04-24T19:27:05.140Z,5.40
2018-04-24T19:29:32.705Z,5.57
2018-04-24T19:32:05.910Z,5.60
2018-04-24T19:34:33.702Z,4.30
2018-04-24T19:37:01.168Z,4.80
2018-04-24T19:39:34.357Z,3.80
2018-04-24T19:42:02.594Z,3.70
2018-04-24T19:44:30.062Z,4.60
2018-04-24T19:46:57.532Z,4.53
2018-04-24T19:49:31.461Z,5.90
2018-04-24T19:51:58.850Z,5.33
2018-04-24T19:54:26.313Z,4.27
2018-04-24T19:56:53.781Z,4.77
2018-04-24T19:59:21.256Z,4.90
2018-04-24T20:01:49.488Z,3.70
2018-04-24T20:04:16.950Z,3.67
2018-04-24T20:06:44.573Z,3.33
2018-04-24T20:09:12.801Z,4.70
2018-04-24T20:11:40.287Z,8.03
2018-04-24T20:14:07.760Z,14.23
2018-04-24T20:16:36.012Z,22.27
2018-04-24T20:19:03.498Z,13.83
2018-04-24T20:21:31.739Z,12.50
2018-04-24T20:23:59.218Z,7.20
2018-04-24T20:26:26.694Z,6.57
2018-04-24T20:28:54.950Z,5.43
2018-04-24T20:31:22.530Z,3.93
2018-04-24T20:33:50.752Z,4.20
2018-04-24T20:36:18.212Z,4.30
2018-04-24T20:38:45.750Z,3.60
2018-04-24T20:41:13.153Z,3.40
2018-04-24T20:43:40.610Z,4.10
2018-04-24T20:46:08.180Z,3.60
2018-04-24T20:48:35.730Z,3.40
2018-04-24T20:51:03.196Z,3.47
2018-04-24T20:53:30.883Z,4.73
2018-04-24T20:55:58.322Z,4.50
2018-04-24T20:58:25.881Z,4.60
2018-04-24T21:00:53.391Z,3.77
2018-04-24T21:03:21.573Z,3.57
2018-04-24T21:05:49.062Z,4.10
2018-04-24T21:08:16.526Z,4.40
2018-04-24T21:10:43.985Z,3.87
2018-04-24T21:13:11.555Z,3.80
2018-04-24T21:15:39.789Z,4.13
2018-04-24T21:18:07.277Z,3.50
2018-04-24T21:20:34.757Z,3.93
2018-04-24T21:23:02.988Z,3.60
2018-04-24T21:25:30.449Z,3.83
2018-04-24T21:27:57.913Z,3.80
2018-04-24T21:30:25.389Z,3.80
2018-04-24T21:32:52.868Z,3.77
2018-04-24T21:35:21.124Z,3.83
2018-04-24T21:37:48.614Z,3.77
2018-04-24T21:40:16.857Z,3.83
2018-04-24T21:42:44.332Z,3.90
2018-04-24T21:45:12.590Z,4.67
2018-04-24T21:47:40.073Z,4.20
2018-04-24T21:50:08.300Z,3.57
2018-04-24T21:52:35.768Z,3.60
2018-04-24T21:55:03.235Z,3.90
2018-04-24T21:57:30.691Z,4.63
2018-04-24T21:59:58.158Z,3.40
2018-04-24T22:02:25.616Z,3.53
2018-04-24T22:04:53.889Z,3.33
2018-04-24T22:07:21.454Z,3.10
2018-04-24T22:09:48.923Z,3.87
2018-04-24T22:12:16.465Z,3.77
2018-04-24T22:14:44.030Z,3.37
2018-04-24T22:17:11.489Z,3.93
2018-04-24T22:19:38.972Z,3.63
2018-04-24T22:22:07.197Z,3.33
2018-04-24T22:24:34.653Z,3.43
2018-04-24T22:27:02.113Z,3.30
2018-04-24T22:29:29.598Z,3.73
2018-04-24T22:31:57.157Z,3.60
2018-04-24T22:34:24.682Z,4.00
2018-04-24T22:36:52.141Z,3.77
2018-04-24T22:39:19.637Z,4.00
2018-04-24T22:41:47.188Z,3.30
2018-04-24T22:44:14.663Z,3.83
2018-04-24T22:46:42.886Z,3.60
2018-04-24T22:49:10.353Z,3.50
2018-04-24T22:51:37.810Z,3.50
2018-04-24T22:54:05.268Z,3.33
2018-04-24T22:56:32.758Z,3.47
2018-04-24T22:59:00.221Z,3.40
2018-04-24T23:01:27.778Z,3.80
2018-04-24T23:03:55.237Z,3.20
2018-04-24T23:06:22.799Z,3.20
2018-04-24T23:08:50.353Z,3.20
2018-04-24T23:11:29.794Z,3.47
2018-04-24T23:14:09.913Z,4.13
2018-04-24T23:16:49.394Z,3.23
2018-04-24T23:19:28.848Z,3.10
2018-04-24T23:21:56.593Z,3.43
2018-04-24T23:24:24.057Z,3.40
2018-04-24T23:26:51.617Z,3.17
2018-04-24T23:29:19.076Z,3.97
2018-04-24T23:31:46.533Z,3.47
2018-04-24T23:34:13.993Z,3.10
2018-04-24T23:36:41.548Z,3.53
2018-04-24T23:39:09.003Z,3.37
2018-04-24T23:41:36.571Z,3.10
2018-04-24T23:44:04.849Z,3.90
2018-04-24T23:46:32.441Z,3.93
2018-04-24T23:49:00.657Z,3.47
2018-04-24T23:51:28.141Z,3.80
2018-04-24T23:53:55.600Z,3.57
2018-04-24T23:56:23.058Z,3.80
2018-04-24T23:58:50.615Z,3.50
